Ana Sayfa
METAR-TAF:

METAR-TAF

Havaalanları :

Matamoros, Meksika

Enlem: 25-46N, Boylam: 097-32W, yükseklik: 8 m

Güncel hava durumu gözlemi

Rapor saat 23:44 UTC de 54 dakika önce yapıldı.
Rüzgar doğudan 14 kt
Sıcaklık 15°C
Nem 36%
Basınç 1027 hPa
Görüş mesafesi: 12.9 km
Açık gökyüzü

METAR: MMMA 272344Z 08014KT 8SM SKC 15/00 A3033 RMK SLP270 56004 958

Saat: 18:38 (00:38 UTC)

Tahmin

Rapor saat 17:15 UTC de 7 saat ve 23 dakika önce yapıldı.
Ayın 27'si saat 18 UTC'den ayın 28'si saat 18 UTC'ye kadar geçerli Tahmin
Rüzgar kuzey/kuzeydoğudan 15 kt
Görüş mesafesi: 10 km
Açık gökyüzü
Dönüşüyor
ayın 28'si saat 01 UTC'den ayın 28'si saat 02 UTC'ye kadar
Rüzgar doğudan 10 kt
Ayın 28'si saat 1500 UTC'den
Rüzgar güneydoğudan 10 kt
Görüş mesafesi: 10 km
Açık gökyüzü

TAF: MMMA 271715Z 2718/2818 02015KT P6SM SKC BECMG 2801/2802 10010KT FM281500 14010KT P6SM SKC

4.000'den fazla havaalanı için hava durumu gözlemleri ve tahminleri (METAR ve TAF raporları).

Kullanılabilir istasyonlar harita üzerinde sarı ve kırmızı noktalarla gösterilir.

İstasyonun adını görmek için fareyi noktanın üzerinde gezdirin.

Sonrasında hava gözlem ve tahminlerini görmek için tıklayın.

Haritayı değiştirmek için: yaklaştırmak için siyah artı işaretli yeşil düğmeye ve uzaklaştırmak için de eksi işaretli düğmeye hızla tıklayın; bitişik haritalar için yeşil okları kullanın.


METAR-TAF: